createdAt,value
2023-02-12T00:01:20.106Z,5.10
2023-02-12T00:03:48.117Z,5.10
2023-02-12T00:06:16.271Z,5.20
2023-02-12T00:08:44.951Z,5.10
2023-02-12T00:11:15.544Z,5.10
2023-02-12T00:13:43.920Z,5.10
2023-02-12T00:16:14.675Z,5.10
2023-02-12T00:18:44.503Z,5.10
2023-02-12T00:21:13.923Z,5.10
2023-02-12T00:23:42.725Z,5.10
2023-02-12T00:26:12.466Z,5.20
2023-02-12T00:28:40.794Z,5.10
2023-02-12T00:31:09.955Z,5.10
2023-02-12T00:33:38.200Z,5.20
2023-02-12T00:36:08.643Z,5.10
2023-02-12T00:38:36.718Z,5.10
2023-02-12T00:41:04.751Z,5.10
2023-02-12T00:43:32.747Z,5.20
2023-02-12T00:46:00.808Z,5.20
2023-02-12T00:48:28.810Z,5.20
2023-02-12T00:50:56.704Z,5.20
2023-02-12T00:53:26.412Z,5.20
2023-02-12T00:55:54.857Z,5.20
2023-02-12T00:58:22.905Z,5.20
2023-02-12T01:00:52.331Z,5.20
2023-02-12T01:03:20.421Z,5.10
2023-02-12T01:05:48.511Z,5.10
2023-02-12T01:08:17.703Z,5.10
2023-02-12T01:10:47.028Z,5.10
2023-02-12T01:13:16.598Z,5.00
2023-02-12T01:15:44.584Z,5.00
2023-02-12T01:18:12.578Z,5.00
2023-02-12T01:20:41.196Z,5.00
2023-02-12T01:23:12.080Z,5.00
2023-02-12T01:25:40.107Z,5.00
2023-02-12T01:28:11.701Z,5.10
2023-02-12T01:30:40.285Z,5.10
2023-02-12T01:33:08.298Z,5.10
2023-02-12T01:35:38.192Z,5.10
2023-02-12T01:38:06.104Z,5.20
2023-02-12T01:40:34.124Z,5.20
2023-02-12T01:43:03.332Z,5.20
2023-02-12T01:45:49.586Z,5.30
2023-02-12T01:48:19.540Z,5.20
2023-02-12T01:50:49.969Z,5.30
2023-02-12T01:53:20.389Z,5.30
2023-02-12T01:55:50.519Z,5.30
2023-02-12T01:58:19.321Z,5.40
2023-02-12T02:00:48.873Z,5.30
2023-02-12T02:03:17.644Z,5.30
2023-02-12T02:05:50.972Z,5.30
2023-02-12T02:08:19.817Z,5.30
2023-02-12T02:10:47.767Z,5.30
2023-02-12T02:13:33.566Z,5.30
2023-02-12T02:16:10.775Z,5.30
2023-02-12T02:18:45.416Z,5.30
2023-02-12T02:21:29.466Z,5.30
2023-02-12T02:24:34.414Z,5.30
2023-02-12T02:27:01.758Z,5.20
2023-02-12T02:29:46.739Z,5.20
2023-02-12T02:32:20.014Z,5.20
2023-02-12T02:34:55.980Z,5.10
2023-02-12T02:37:30.362Z,5.10
2023-02-12T02:40:05.041Z,5.10
2023-02-12T02:42:39.588Z,5.20
2023-02-12T02:45:13.092Z,5.10
2023-02-12T02:47:46.759Z,5.10
2023-02-12T02:50:18.416Z,5.10
2023-02-12T02:52:50.726Z,5.10
2023-02-12T02:55:21.335Z,5.10
2023-02-12T02:57:56.093Z,5.00
2023-02-12T03:00:28.550Z,5.00
2023-02-12T03:03:03.039Z,5.10
2023-02-12T03:05:35.957Z,5.00
2023-02-12T03:08:09.788Z,5.00
2023-02-12T03:10:41.898Z,5.10
2023-02-12T03:13:13.153Z,5.10
2023-02-12T03:15:47.351Z,5.10
2023-02-12T03:18:20.308Z,5.10
2023-02-12T03:20:53.061Z,5.10
2023-02-12T03:23:25.937Z,5.10
2023-02-12T03:25:58.756Z,5.20
2023-02-12T03:28:29.915Z,5.20
2023-02-12T03:31:05.687Z,5.20
2023-02-12T03:33:44.562Z,5.20
2023-02-12T03:36:23.205Z,5.10
2023-02-12T03:38:54.821Z,5.10
2023-02-12T03:41:28.676Z,5.10
2023-02-12T03:44:02.958Z,5.10
2023-02-12T03:46:39.588Z,5.10
2023-02-12T03:49:12.563Z,5.20
2023-02-12T03:51:43.757Z,5.10
2023-02-12T03:54:16.787Z,5.10
2023-02-12T03:56:52.057Z,5.00
2023-02-12T03:59:20.916Z,5.00
2023-02-12T04:01:49.773Z,5.00
2023-02-12T04:04:20.007Z,5.00
2023-02-12T04:06:50.428Z,5.00
2023-02-12T04:09:19.388Z,5.00
2023-02-12T04:11:57.665Z,4.90
2023-02-12T04:14:32.130Z,4.90
2023-02-12T04:17:07.252Z,5.00
2023-02-12T04:19:47.163Z,5.00
2023-02-12T04:22:24.252Z,5.10
2023-02-12T04:25:04.925Z,5.20
2023-02-12T04:27:43.683Z,5.20
2023-02-12T04:30:21.813Z,5.30
2023-02-12T04:32:54.048Z,5.20
2023-02-12T04:35:28.069Z,5.20
2023-02-12T04:38:03.192Z,5.10
2023-02-12T04:40:32.389Z,5.00
2023-02-12T04:43:00.375Z,5.00
2023-02-12T04:45:30.559Z,5.00
2023-02-12T04:47:58.608Z,5.00
2023-02-12T04:50:28.135Z,5.00
2023-02-12T04:52:56.078Z,5.00
2023-02-12T04:55:24.045Z,5.00
2023-02-12T04:57:52.002Z,5.00
2023-02-12T05:00:20.438Z,5.10
2023-02-12T05:02:48.429Z,5.10
2023-02-12T05:05:16.624Z,5.10
2023-02-12T05:07:46.024Z,5.10
2023-02-12T05:10:13.909Z,5.00
2023-02-12T05:12:41.953Z,5.00
2023-02-12T05:15:10.610Z,5.10
2023-02-12T05:17:38.790Z,5.10
2023-02-12T05:20:07.879Z,5.20
2023-02-12T05:22:35.809Z,5.20
2023-02-12T05:25:05.615Z,5.20
2023-02-12T05:27:33.851Z,5.20
2023-02-12T05:30:02.542Z,5.20
2023-02-12T05:32:30.701Z,5.20
2023-02-12T05:34:58.698Z,5.10
2023-02-12T05:37:26.814Z,5.10
2023-02-12T05:39:54.869Z,5.00
2023-02-12T05:42:24.317Z,5.10
2023-02-12T05:44:52.260Z,5.10
2023-02-12T05:47:20.757Z,5.10
2023-02-12T05:49:48.759Z,5.10
2023-02-12T05:52:16.718Z,5.10
2023-02-12T05:54:44.702Z,5.10
2023-02-12T05:57:12.737Z,5.10
2023-02-12T05:59:42.098Z,5.10
2023-02-12T06:02:10.093Z,5.10
2023-02-12T06:04:38.115Z,5.20
2023-02-12T06:07:07.272Z,5.20
2023-02-12T06:09:36.408Z,5.20
2023-02-12T06:12:05.034Z,5.20
2023-02-12T06:14:33.083Z,5.20
2023-02-12T06:17:02.491Z,5.10
2023-02-12T06:19:30.388Z,5.10
2023-02-12T06:21:58.440Z,5.10
2023-02-12T06:24:26.861Z,5.10
2023-02-12T06:26:55.030Z,5.00
2023-02-12T06:29:23.427Z,5.00
2023-02-12T06:31:51.569Z,5.00
2023-02-12T06:34:21.015Z,5.00
2023-02-12T06:36:49.595Z,5.10
2023-02-12T06:39:18.277Z,5.00
2023-02-12T06:41:46.413Z,5.10
2023-02-12T06:44:14.951Z,5.10
2023-02-12T06:46:43.262Z,5.00
2023-02-12T06:49:14.170Z,4.90
2023-02-12T06:51:43.721Z,4.90
2023-02-12T06:54:16.030Z,4.90
2023-02-12T06:56:44.485Z,5.00
2023-02-12T06:59:15.778Z,5.10
2023-02-12T07:01:44.802Z,5.10
2023-02-12T07:04:13.444Z,5.10
2023-02-12T07:06:43.047Z,5.30
2023-02-12T07:09:11.140Z,5.40
2023-02-12T07:11:39.617Z,5.30
2023-02-12T07:14:08.126Z,5.20
2023-02-12T07:16:36.272Z,5.20
2023-02-12T07:19:04.376Z,5.20
2023-02-12T07:21:33.065Z,5.40
2023-02-12T07:24:02.532Z,5.50
2023-02-12T07:26:30.569Z,5.50
2023-02-12T07:28:59.325Z,5.60
2023-02-12T07:31:27.376Z,5.70
2023-02-12T07:33:56.318Z,5.80
2023-02-12T07:36:25.008Z,5.80
2023-02-12T07:38:53.101Z,5.90
2023-02-12T07:41:24.225Z,6.00
2023-02-12T07:43:57.001Z,5.90
2023-02-12T07:46:29.826Z,6.00
2023-02-12T07:48:58.840Z,6.00
2023-02-12T07:51:28.039Z,6.00
2023-02-12T07:53:57.338Z,6.00
2023-02-12T07:56:32.065Z,6.10
2023-02-12T07:59:01.685Z,6.10
2023-02-12T08:01:31.452Z,6.10
2023-02-12T08:04:00.769Z,6.10
2023-02-12T08:06:31.872Z,6.20
2023-02-12T08:09:02.181Z,6.20
2023-02-12T08:11:31.946Z,6.20
2023-02-12T08:14:01.777Z,6.30
2023-02-12T08:16:30.693Z,6.30
2023-02-12T08:19:15.839Z,6.40
2023-02-12T08:21:47.358Z,6.40
2023-02-12T08:24:15.507Z,6.50
2023-02-12T08:26:45.506Z,6.50
2023-02-12T08:29:16.323Z,6.60
2023-02-12T08:31:46.289Z,6.60
2023-02-12T08:34:20.497Z,6.70
2023-02-12T08:36:49.764Z,6.80
2023-02-12T08:39:18.321Z,6.90
2023-02-12T08:41:48.576Z,6.90
2023-02-12T08:44:17.839Z,6.90
2023-02-12T08:46:48.161Z,7.10
2023-02-12T08:49:18.111Z,7.20
2023-02-12T08:51:48.886Z,7.20
2023-02-12T08:54:21.600Z,7.20
2023-02-12T08:56:59.213Z,7.20
2023-02-12T08:59:28.011Z,7.20
2023-02-12T09:01:56.766Z,7.20
2023-02-12T09:04:27.884Z,7.30
2023-02-12T09:06:56.699Z,7.40
2023-02-12T09:09:25.463Z,7.40
2023-02-12T09:11:54.921Z,7.40
2023-02-12T09:14:25.017Z,7.50
2023-02-12T09:16:54.215Z,7.50
2023-02-12T09:19:22.922Z,7.50
2023-02-12T09:21:55.204Z,7.70
2023-02-12T09:24:24.009Z,7.80
2023-02-12T09:26:52.009Z,8.00
2023-02-12T09:29:21.420Z,8.00
2023-02-12T09:31:49.860Z,8.00
2023-02-12T09:34:18.077Z,8.00
2023-02-12T09:36:46.027Z,7.90
2023-02-12T09:39:14.104Z,7.90
2023-02-12T09:42:06.314Z,7.80
2023-02-12T09:44:44.273Z,7.80
2023-02-12T09:47:16.387Z,8.00
2023-02-12T09:50:07.447Z,8.00
2023-02-12T09:52:36.303Z,8.00
2023-02-12T09:55:04.868Z,7.90
2023-02-12T09:57:36.235Z,7.80
2023-02-12T10:00:10.236Z,7.80
2023-02-12T10:02:39.559Z,7.70
2023-02-12T10:05:15.914Z,7.70
2023-02-12T10:08:02.409Z,7.70
2023-02-12T10:10:44.753Z,7.60
2023-02-12T10:13:19.946Z,7.70
2023-02-12T10:15:58.369Z,7.80
2023-02-12T10:18:51.408Z,7.80
2023-02-12T10:21:32.593Z,7.80
2023-02-12T10:24:17.715Z,7.80
2023-02-12T10:26:49.623Z,7.90
2023-02-12T10:29:21.223Z,7.90
2023-02-12T10:34:34.126Z,7.90
2023-02-12T10:37:06.967Z,7.90
2023-02-12T10:39:39.146Z,8.00
2023-02-12T10:42:13.982Z,8.00
2023-02-12T10:44:42.099Z,7.90
2023-02-12T10:47:19.666Z,8.00
2023-02-12T10:49:50.352Z,8.00
2023-02-12T10:52:28.833Z,8.00
2023-02-12T10:54:57.055Z,8.10
2023-02-12T10:57:28.048Z,8.10
2023-02-12T10:59:59.147Z,8.20
2023-02-12T11:02:30.808Z,8.10
2023-02-12T11:05:01.068Z,8.10
2023-02-12T11:07:32.653Z,8.10
2023-02-12T11:10:00.807Z,8.20
2023-02-12T11:12:34.165Z,8.20
2023-02-12T11:15:05.886Z,8.30
2023-02-12T11:17:38.642Z,8.20
2023-02-12T11:20:20.700Z,8.20
2023-02-12T11:22:57.964Z,8.30
2023-02-12T11:25:27.797Z,8.40
2023-02-12T11:28:05.227Z,8.50
2023-02-12T11:30:33.826Z,8.50
2023-02-12T11:33:34.671Z,8.50
2023-02-12T11:36:07.432Z,8.50
2023-02-12T11:38:38.464Z,8.60
2023-02-12T11:41:24.981Z,8.70
2023-02-12T11:43:54.007Z,8.90
2023-02-12T11:46:24.735Z,9.10
2023-02-12T11:48:56.690Z,9.10
2023-02-12T11:51:30.293Z,9.10
2023-02-12T11:54:00.929Z,9.30
2023-02-12T11:56:42.874Z,9.30
2023-02-12T11:59:19.352Z,9.10
2023-02-12T12:01:47.798Z,9.20
2023-02-12T12:04:22.150Z,9.20
2023-02-12T12:06:56.624Z,9.30
2023-02-12T12:09:34.796Z,9.30
2023-02-12T12:12:11.113Z,9.40
2023-02-12T12:14:57.893Z,9.70
2023-02-12T12:17:51.193Z,9.70
2023-02-12T12:20:25.304Z,9.60
2023-02-12T12:23:00.788Z,9.50
2023-02-12T12:25:32.019Z,9.70
2023-02-12T12:28:13.378Z,9.60
2023-02-12T12:30:58.126Z,9.80
2023-02-12T12:33:37.180Z,9.90
2023-02-12T12:36:28.951Z,10.00
2023-02-12T12:39:03.366Z,10.00
2023-02-12T12:41:48.038Z,9.90
2023-02-12T12:44:32.504Z,9.90
2023-02-12T12:47:13.588Z,10.00
2023-02-12T12:49:56.922Z,9.80
2023-02-12T12:53:02.080Z,9.70
2023-02-12T12:56:06.574Z,10.00
2023-02-12T12:58:48.270Z,10.10
2023-02-12T13:01:54.007Z,10.00
2023-02-12T13:04:55.094Z,9.80
2023-02-12T13:07:42.954Z,10.00
2023-02-12T13:10:34.666Z,10.00
2023-02-12T13:13:16.726Z,9.90
2023-02-12T13:15:52.525Z,9.80
2023-02-12T13:18:31.072Z,9.80
2023-02-12T13:21:07.222Z,9.90
2023-02-12T13:23:45.252Z,9.80
2023-02-12T13:26:20.229Z,9.90
2023-02-12T13:28:53.915Z,9.90
2023-02-12T13:31:33.033Z,9.90
2023-02-12T13:34:04.769Z,10.00
2023-02-12T13:36:34.290Z,10.00
2023-02-12T13:39:23.744Z,9.90
2023-02-12T13:42:01.055Z,9.90
2023-02-12T13:44:33.435Z,9.90
2023-02-12T13:47:10.988Z,9.90
2023-02-12T13:49:48.840Z,9.90
2023-02-12T13:52:25.634Z,9.90
2023-02-12T13:55:06.504Z,9.90
2023-02-12T13:57:42.254Z,9.70
2023-02-12T14:01:02.642Z,9.70
2023-02-12T14:03:32.302Z,9.70
2023-02-12T14:06:15.682Z,9.80
2023-02-12T14:08:46.226Z,9.80
2023-02-12T14:11:17.382Z,9.90
2023-02-12T14:13:53.991Z,9.80
2023-02-12T14:16:40.253Z,9.80
2023-02-12T14:19:45.758Z,9.80
2023-02-12T14:22:15.884Z,9.80
2023-02-12T14:24:52.498Z,9.80
2023-02-12T14:27:36.310Z,9.80
2023-02-12T14:30:32.536Z,9.80
2023-02-12T14:33:25.158Z,9.80
2023-02-12T14:36:18.435Z,9.70
2023-02-12T14:39:02.885Z,9.90
2023-02-12T14:41:42.544Z,9.80
2023-02-12T14:44:48.158Z,9.80
2023-02-12T14:47:50.697Z,9.80
2023-02-12T14:50:24.334Z,9.80
2023-02-12T14:52:58.293Z,9.70
2023-02-12T14:55:35.322Z,9.60
2023-02-12T14:58:07.078Z,9.50
2023-02-12T15:00:40.980Z,9.40
2023-02-12T15:03:25.409Z,9.40
2023-02-12T15:06:03.990Z,9.50
2023-02-12T15:08:42.419Z,9.40
2023-02-12T15:11:21.293Z,9.30
2023-02-12T15:13:54.200Z,9.40
2023-02-12T15:16:30.903Z,9.40
2023-02-12T15:19:09.109Z,9.40
2023-02-12T15:21:39.824Z,9.40
2023-02-12T15:24:09.632Z,9.30
2023-02-12T15:26:43.308Z,9.30
2023-02-12T15:29:22.376Z,9.20
2023-02-12T15:32:07.163Z,9.10
2023-02-12T15:34:38.989Z,8.90
2023-02-12T15:37:09.914Z,8.90
2023-02-12T15:39:43.685Z,8.90
2023-02-12T15:42:25.919Z,8.80
2023-02-12T15:45:02.428Z,8.70
2023-02-12T15:47:30.688Z,8.70
2023-02-12T15:50:01.382Z,8.80
2023-02-12T15:52:35.714Z,8.80
2023-02-12T15:55:06.010Z,8.70
2023-02-12T15:57:34.544Z,8.80
2023-02-12T16:00:10.359Z,8.90
2023-02-12T16:02:38.409Z,8.90
2023-02-12T16:05:07.643Z,8.90
2023-02-12T16:07:39.565Z,8.70
2023-02-12T16:10:08.694Z,8.60
2023-02-12T16:12:38.940Z,8.50
2023-02-12T16:15:23.719Z,8.50
2023-02-12T16:17:53.224Z,8.40
2023-02-12T16:20:24.825Z,8.10
2023-02-12T16:22:54.786Z,8.00
2023-02-12T16:25:26.369Z,8.00
2023-02-12T16:27:59.835Z,7.80
2023-02-12T16:30:30.973Z,7.70
2023-02-12T16:32:59.769Z,7.60
2023-02-12T16:35:34.536Z,7.60
2023-02-12T16:38:35.915Z,7.50
2023-02-12T16:41:23.546Z,7.50
2023-02-12T16:44:12.161Z,7.40
2023-02-12T16:46:47.967Z,7.40
2023-02-12T16:49:18.096Z,7.30
2023-02-12T16:51:47.546Z,7.20
2023-02-12T16:54:31.363Z,7.10
2023-02-12T16:57:00.254Z,7.10
2023-02-12T16:59:28.806Z,7.00
2023-02-12T17:02:02.062Z,6.80
2023-02-12T17:04:30.691Z,6.80
2023-02-12T17:06:59.359Z,6.80
2023-02-12T17:09:29.684Z,6.70
2023-02-12T17:11:59.124Z,6.70
2023-02-12T17:14:27.133Z,6.60
2023-02-12T17:16:55.264Z,6.50
2023-02-12T17:19:23.317Z,6.50
2023-02-12T17:21:51.982Z,6.40
2023-02-12T17:24:24.233Z,6.40
2023-02-12T17:26:53.225Z,6.30
2023-02-12T17:29:24.697Z,6.30
2023-02-12T17:31:53.744Z,6.30
2023-02-12T17:34:22.223Z,6.30
2023-02-12T17:36:51.212Z,6.20
2023-02-12T17:39:19.604Z,6.20
2023-02-12T17:41:47.843Z,6.10
2023-02-12T17:44:16.331Z,6.20
2023-02-12T17:46:45.795Z,6.20
2023-02-12T17:49:13.850Z,6.10
2023-02-12T17:51:42.726Z,6.10
2023-02-12T17:54:11.125Z,6.10
2023-02-12T17:56:39.191Z,6.00
2023-02-12T17:59:07.224Z,5.90
2023-02-12T18:01:43.984Z,5.80
2023-02-12T18:04:18.949Z,5.80
2023-02-12T18:06:47.111Z,5.80
2023-02-12T18:09:15.564Z,5.90
2023-02-12T18:11:43.825Z,5.90
2023-02-12T18:14:12.664Z,5.80
2023-02-12T18:16:41.867Z,5.80
2023-02-12T18:19:23.438Z,5.90
2023-02-12T18:21:51.905Z,5.80
2023-02-12T18:24:22.285Z,5.70
2023-02-12T18:26:52.317Z,5.70
2023-02-12T18:29:20.444Z,5.70
2023-02-12T18:31:48.586Z,5.80
2023-02-12T18:34:19.856Z,5.70
2023-02-12T18:36:47.904Z,5.80
2023-02-12T18:39:15.888Z,5.90
2023-02-12T18:41:44.325Z,6.10
2023-02-12T18:44:13.327Z,6.20
2023-02-12T18:46:41.591Z,6.20
2023-02-12T18:49:10.082Z,6.10
2023-02-12T18:51:41.093Z,6.00
2023-02-12T18:54:12.092Z,5.90
2023-02-12T18:56:43.835Z,5.70
2023-02-12T18:59:15.596Z,5.60
2023-02-12T19:01:44.165Z,5.60
2023-02-12T19:04:16.074Z,5.40
2023-02-12T19:06:47.769Z,5.30
2023-02-12T19:09:17.000Z,5.30
2023-02-12T19:11:46.759Z,5.20
2023-02-12T19:14:15.825Z,5.20
2023-02-12T19:16:45.150Z,5.10
2023-02-12T19:19:14.650Z,5.20
2023-02-12T19:21:43.456Z,5.10
2023-02-12T19:24:14.765Z,5.10
2023-02-12T19:26:44.272Z,5.00
2023-02-12T19:29:15.460Z,5.10
2023-02-12T19:31:46.618Z,5.00
2023-02-12T19:34:19.647Z,4.80
2023-02-12T19:36:49.458Z,4.80
2023-02-12T19:39:21.554Z,4.80
2023-02-12T19:41:49.836Z,4.70
2023-02-12T19:44:20.870Z,4.70
2023-02-12T19:46:52.457Z,4.80
2023-02-12T19:49:23.209Z,4.60
2023-02-12T19:51:51.800Z,4.80
2023-02-12T19:54:23.281Z,4.70
2023-02-12T19:56:56.388Z,4.70
2023-02-12T19:59:25.984Z,4.80
2023-02-12T20:01:54.353Z,4.90
2023-02-12T20:04:24.306Z,5.00
2023-02-12T20:06:56.181Z,5.10
2023-02-12T20:09:26.285Z,5.30
2023-02-12T20:11:54.834Z,5.30
2023-02-12T20:14:22.987Z,5.60
2023-02-12T20:16:51.916Z,5.60
2023-02-12T20:19:22.917Z,5.80
2023-02-12T20:21:55.388Z,5.80
2023-02-12T20:24:26.216Z,5.90
2023-02-12T20:26:55.281Z,6.00
2023-02-12T20:29:25.788Z,6.00
2023-02-12T20:31:54.255Z,6.00
2023-02-12T20:34:23.228Z,6.10
2023-02-12T20:36:51.421Z,6.10
2023-02-12T20:39:21.320Z,6.20
2023-02-12T20:41:51.185Z,6.30
2023-02-12T20:44:21.681Z,6.40
2023-02-12T20:46:55.588Z,6.50
2023-02-12T20:49:25.842Z,6.50
2023-02-12T20:51:54.198Z,6.40
2023-02-12T20:54:24.830Z,6.50
2023-02-12T20:56:57.385Z,6.50
2023-02-12T20:59:28.464Z,6.50
2023-02-12T21:01:59.625Z,6.50
2023-02-12T21:04:29.333Z,6.50
2023-02-12T21:06:59.937Z,6.50
2023-02-12T21:09:28.153Z,6.60
2023-02-12T21:11:59.206Z,6.60
2023-02-12T21:14:28.027Z,6.60
2023-02-12T21:17:49.849Z,6.70
2023-02-12T21:20:18.941Z,6.60
2023-02-12T21:22:48.122Z,6.70
2023-02-12T21:25:18.035Z,6.70
2023-02-12T21:27:47.736Z,6.80
2023-02-12T21:30:16.125Z,6.80
2023-02-12T21:32:44.593Z,6.80
2023-02-12T21:35:12.816Z,6.90
2023-02-12T21:37:40.786Z,6.90
2023-02-12T21:40:10.262Z,7.00
2023-02-12T21:42:38.177Z,6.90
2023-02-12T21:45:08.344Z,6.90
2023-02-12T21:47:38.760Z,6.90
2023-02-12T21:50:08.370Z,6.90
2023-02-12T21:52:39.394Z,6.90
2023-02-12T21:55:10.736Z,6.90
2023-02-12T21:57:38.710Z,6.90
2023-02-12T22:00:09.834Z,6.90
2023-02-12T22:02:37.809Z,6.90
2023-02-12T22:05:06.030Z,6.90
2023-02-12T22:07:34.996Z,6.80
2023-02-12T22:10:03.127Z,6.80
2023-02-12T22:12:32.323Z,6.80
2023-02-12T22:15:03.384Z,6.80
2023-02-12T22:17:35.753Z,6.80
2023-02-12T22:20:03.747Z,6.70
2023-02-12T22:22:31.768Z,6.70
2023-02-12T22:24:59.711Z,6.70
2023-02-12T22:27:27.704Z,6.60
2023-02-12T22:29:56.380Z,6.60
2023-02-12T22:32:24.546Z,6.70
2023-02-12T22:34:54.401Z,6.70
2023-02-12T22:37:22.507Z,6.70
2023-02-12T22:39:50.510Z,6.70
2023-02-12T22:42:18.466Z,6.60
2023-02-12T22:44:46.437Z,6.70
2023-02-12T22:47:14.413Z,6.60
2023-02-12T22:49:42.504Z,6.60
2023-02-12T22:52:12.421Z,6.60
2023-02-12T22:54:40.423Z,6.60
2023-02-12T22:57:08.484Z,6.60
2023-02-12T22:59:36.504Z,6.60
2023-02-12T23:02:04.537Z,6.50
2023-02-12T23:04:32.703Z,6.40
2023-02-12T23:07:00.636Z,6.30
2023-02-12T23:09:30.274Z,6.30
2023-02-12T23:11:58.210Z,6.20
2023-02-12T23:14:26.297Z,6.10
2023-02-12T23:16:54.406Z,6.10
2023-02-12T23:19:22.824Z,6.10
2023-02-12T23:21:50.755Z,6.00
2023-02-12T23:24:18.677Z,5.90
2023-02-12T23:26:47.973Z,5.80
2023-02-12T23:29:15.924Z,5.70
2023-02-12T23:31:44.020Z,5.60
2023-02-12T23:34:12.162Z,5.40
2023-02-12T23:36:40.267Z,5.50
2023-02-12T23:39:09.417Z,5.40
2023-02-12T23:41:37.509Z,5.40
2023-02-12T23:44:07.078Z,5.30
2023-02-12T23:46:35.085Z,5.30
2023-02-12T23:49:03.101Z,5.30
2023-02-12T23:51:31.381Z,5.30
2023-02-12T23:53:59.398Z,5.30
2023-02-12T23:56:27.702Z,5.20
2023-02-12T23:58:56.696Z,5.20
